createdAt,value
2023-05-03T00:00:12.925Z,9.00
2023-05-03T00:02:44.838Z,9.00
2023-05-03T00:05:15.139Z,8.90
2023-05-03T00:07:44.960Z,8.90
2023-05-03T00:10:16.055Z,8.80
2023-05-03T00:12:45.682Z,8.80
2023-05-03T00:15:15.237Z,8.80
2023-05-03T00:17:43.324Z,8.80
2023-05-03T00:20:13.377Z,8.70
2023-05-03T00:22:41.697Z,8.70
2023-05-03T00:25:11.009Z,8.70
2023-05-03T00:27:39.510Z,8.70
2023-05-03T00:30:09.505Z,8.60
2023-05-03T00:32:39.611Z,8.60
2023-05-03T00:35:08.593Z,8.60
2023-05-03T00:37:38.172Z,8.60
2023-05-03T00:40:07.449Z,8.60
2023-05-03T00:42:37.190Z,8.50
2023-05-03T00:45:06.667Z,8.50
2023-05-03T00:47:35.318Z,8.50
2023-05-03T00:50:05.953Z,8.40
2023-05-03T00:52:35.748Z,8.40
2023-05-03T00:55:04.009Z,8.40
2023-05-03T00:57:32.635Z,8.40
2023-05-03T01:00:01.534Z,8.30
2023-05-03T01:02:30.812Z,8.30
2023-05-03T01:04:58.980Z,8.30
2023-05-03T01:07:42.526Z,8.20
2023-05-03T01:10:22.816Z,8.20
2023-05-03T01:12:57.034Z,8.10
2023-05-03T01:15:40.597Z,8.10
2023-05-03T01:18:13.526Z,8.10
2023-05-03T01:20:46.252Z,8.10
2023-05-03T01:23:24.699Z,8.00
2023-05-03T01:25:54.760Z,8.00
2023-05-03T01:28:22.706Z,7.90
2023-05-03T01:30:53.523Z,8.00
2023-05-03T01:33:29.783Z,7.90
2023-05-03T01:36:03.553Z,7.90
2023-05-03T01:38:34.732Z,7.80
2023-05-03T01:41:07.785Z,7.70
2023-05-03T01:43:36.532Z,7.70
2023-05-03T01:46:04.478Z,7.70
2023-05-03T01:48:32.682Z,7.60
2023-05-03T01:51:00.830Z,7.60
2023-05-03T01:53:30.394Z,7.60
2023-05-03T01:55:58.762Z,7.60
2023-05-03T01:58:28.301Z,7.50
2023-05-03T02:00:56.569Z,7.50
2023-05-03T02:03:24.543Z,7.50
2023-05-03T02:05:52.566Z,7.50
2023-05-03T02:08:20.499Z,7.50
2023-05-03T02:10:48.651Z,7.40
2023-05-03T02:13:16.657Z,7.40
2023-05-03T02:15:46.612Z,7.30
2023-05-03T02:18:16.636Z,7.30
2023-05-03T02:20:46.823Z,7.30
2023-05-03T02:23:15.855Z,7.30
2023-05-03T02:25:44.858Z,7.30
2023-05-03T02:28:12.878Z,7.20
2023-05-03T02:30:41.137Z,7.20
2023-05-03T02:33:11.506Z,7.20
2023-05-03T02:35:39.866Z,7.20
2023-05-03T02:38:08.025Z,7.10
2023-05-03T02:40:36.088Z,7.10
2023-05-03T02:43:04.541Z,7.20
2023-05-03T02:45:32.486Z,7.10
2023-05-03T02:48:00.451Z,7.10
2023-05-03T02:50:30.351Z,7.10
2023-05-03T02:52:58.515Z,7.10
2023-05-03T02:55:26.789Z,7.00
2023-05-03T02:57:54.902Z,7.10
2023-05-03T03:00:23.798Z,7.10
2023-05-03T03:02:52.643Z,7.10
2023-05-03T03:05:21.292Z,7.10
2023-05-03T03:07:51.593Z,7.10
2023-05-03T03:10:22.011Z,7.10
2023-05-03T03:12:50.060Z,7.10
2023-05-03T03:15:19.084Z,7.10
2023-05-03T03:17:47.398Z,7.10
2023-05-03T03:20:15.947Z,7.10
2023-05-03T03:22:45.768Z,7.00
2023-05-03T03:25:16.031Z,7.00
2023-05-03T03:27:44.290Z,7.00
2023-05-03T03:30:13.257Z,7.00
2023-05-03T03:32:41.513Z,7.00
2023-05-03T03:35:12.414Z,7.00
2023-05-03T03:37:40.901Z,7.00
2023-05-03T03:40:10.712Z,7.00
2023-05-03T03:42:41.270Z,7.00
2023-05-03T03:45:11.607Z,7.00
2023-05-03T03:47:39.673Z,7.00
2023-05-03T03:50:08.598Z,7.00
2023-05-03T03:52:36.942Z,7.00
2023-05-03T03:55:06.353Z,6.90
2023-05-03T03:57:35.195Z,6.90
2023-05-03T04:00:11.879Z,6.90
2023-05-03T04:02:40.218Z,6.90
2023-05-03T04:05:09.737Z,6.80
2023-05-03T04:07:38.351Z,6.80
2023-05-03T04:10:07.528Z,6.80
2023-05-03T04:12:37.075Z,6.80
2023-05-03T04:15:08.088Z,6.80
2023-05-03T04:17:36.380Z,6.80
2023-05-03T04:20:06.803Z,6.80
2023-05-03T04:22:36.769Z,6.70
2023-05-03T04:25:05.813Z,6.80
2023-05-03T04:27:34.333Z,6.60
2023-05-03T04:30:02.786Z,6.60
2023-05-03T04:32:37.793Z,6.60
2023-05-03T04:35:09.578Z,6.70
2023-05-03T04:37:38.046Z,6.70
2023-05-03T04:40:09.688Z,6.70
2023-05-03T04:42:37.980Z,6.70
2023-05-03T04:45:09.882Z,6.80
2023-05-03T04:47:40.330Z,6.80
2023-05-03T04:50:11.344Z,6.80
2023-05-03T04:52:39.994Z,6.80
2023-05-03T04:55:08.854Z,6.80
2023-05-03T04:57:37.214Z,6.80
2023-05-03T05:00:10.865Z,6.90
2023-05-03T05:02:41.167Z,6.90
2023-05-03T05:05:10.609Z,6.90
2023-05-03T05:07:38.907Z,6.90
2023-05-03T05:10:08.295Z,7.00
2023-05-03T05:12:37.206Z,6.90
2023-05-03T05:15:05.948Z,6.90
2023-05-03T05:17:34.045Z,7.00
2023-05-03T05:20:07.634Z,7.00
2023-05-03T05:22:38.218Z,7.00
2023-05-03T05:25:07.702Z,7.10
2023-05-03T05:27:36.392Z,7.10
2023-05-03T05:30:05.634Z,7.20
2023-05-03T05:32:34.390Z,7.10
2023-05-03T05:35:06.027Z,7.10
2023-05-03T05:37:34.390Z,7.20
2023-05-03T05:40:02.910Z,7.30
2023-05-03T05:42:31.203Z,7.40
2023-05-03T05:44:59.505Z,7.40
2023-05-03T05:47:28.080Z,7.50
2023-05-03T05:49:56.677Z,7.60
2023-05-03T05:52:26.548Z,7.60
2023-05-03T05:54:55.391Z,7.60
2023-05-03T05:57:23.674Z,7.70
2023-05-03T05:59:54.211Z,8.00
2023-05-03T06:02:25.048Z,8.10
2023-05-03T06:04:53.535Z,8.30
2023-05-03T06:07:21.793Z,8.40
2023-05-03T06:09:53.086Z,8.40
2023-05-03T06:12:21.460Z,8.30
2023-05-03T06:15:01.309Z,8.30
2023-05-03T06:17:31.089Z,8.30
2023-05-03T06:19:59.690Z,8.30
2023-05-03T06:22:28.050Z,8.30
2023-05-03T06:24:58.205Z,8.50
2023-05-03T06:27:26.504Z,8.60
2023-05-03T06:29:54.760Z,8.70
2023-05-03T06:32:23.824Z,8.90
2023-05-03T06:34:53.114Z,8.90
2023-05-03T06:37:21.161Z,9.00
2023-05-03T06:39:50.503Z,9.10
2023-05-03T06:42:21.431Z,9.30
2023-05-03T06:44:49.470Z,9.50
2023-05-03T06:47:17.309Z,9.50
2023-05-03T06:49:45.424Z,9.50
2023-05-03T06:52:13.847Z,9.60
2023-05-03T06:54:42.240Z,9.80
2023-05-03T06:57:11.281Z,10.00
2023-05-03T06:59:41.257Z,10.20
2023-05-03T07:02:09.631Z,10.40
2023-05-03T07:04:38.113Z,10.40
2023-05-03T07:07:06.857Z,10.50
2023-05-03T07:09:42.708Z,10.70
2023-05-03T07:12:12.867Z,10.80
2023-05-03T07:14:42.668Z,10.80
2023-05-03T07:17:11.643Z,10.80
2023-05-03T07:19:40.041Z,10.80
2023-05-03T07:22:08.758Z,10.90
2023-05-03T07:24:37.375Z,11.10
2023-05-03T07:27:06.668Z,11.10
2023-05-03T07:29:36.578Z,11.20
2023-05-03T07:32:07.590Z,11.40
2023-05-03T07:34:35.535Z,11.50
2023-05-03T07:37:03.964Z,11.50
2023-05-03T07:42:00.392Z,11.70
2023-05-03T07:44:29.007Z,11.90
2023-05-03T07:46:57.638Z,11.90
2023-05-03T07:49:27.409Z,12.00
2023-05-03T07:51:57.893Z,12.10
2023-05-03T07:54:33.528Z,12.30
2023-05-03T07:57:03.720Z,12.20
2023-05-03T07:59:31.938Z,12.40
2023-05-03T08:02:01.655Z,12.40
2023-05-03T08:04:31.839Z,12.50
2023-05-03T08:07:02.381Z,12.50
2023-05-03T08:09:31.488Z,12.70
2023-05-03T08:11:59.682Z,12.80
2023-05-03T08:14:27.936Z,12.70
2023-05-03T08:16:56.486Z,12.80
2023-05-03T08:19:26.517Z,12.80
2023-05-03T08:21:56.078Z,12.80
2023-05-03T08:24:24.776Z,12.80
2023-05-03T08:26:52.890Z,12.90
2023-05-03T08:29:21.180Z,13.10
2023-05-03T08:31:49.400Z,13.10
2023-05-03T08:34:17.790Z,13.20
2023-05-03T08:36:46.209Z,13.20
2023-05-03T08:39:15.744Z,13.20
2023-05-03T08:41:44.409Z,13.30
2023-05-03T08:44:14.339Z,13.50
2023-05-03T08:46:46.017Z,13.70
2023-05-03T08:49:15.028Z,14.00
2023-05-03T08:51:47.270Z,14.20
2023-05-03T08:54:20.687Z,14.50
2023-05-03T08:56:48.823Z,14.60
2023-05-03T08:59:17.887Z,14.80
2023-05-03T09:01:46.117Z,14.90
2023-05-03T09:04:15.237Z,14.90
2023-05-03T09:06:43.494Z,14.90
2023-05-03T09:09:11.595Z,14.80
2023-05-03T09:11:41.454Z,14.70
2023-05-03T09:14:11.373Z,14.40
2023-05-03T09:16:41.046Z,14.30
2023-05-03T09:19:12.446Z,14.50
2023-05-03T09:21:41.303Z,14.50
2023-05-03T09:24:18.904Z,14.50
2023-05-03T09:26:50.971Z,14.40
2023-05-03T09:29:30.607Z,14.40
2023-05-03T09:32:05.501Z,14.50
2023-05-03T09:34:34.516Z,14.80
2023-05-03T09:37:03.157Z,14.70
2023-05-03T09:39:32.387Z,14.80
2023-05-03T09:42:12.393Z,14.80
2023-05-03T09:44:45.554Z,14.90
2023-05-03T09:47:13.573Z,15.10
2023-05-03T09:49:42.181Z,15.00
2023-05-03T09:52:11.362Z,15.10
2023-05-03T09:54:40.035Z,15.30
2023-05-03T09:57:13.075Z,15.40
2023-05-03T09:59:42.186Z,15.40
2023-05-03T10:02:10.956Z,15.20
2023-05-03T10:04:45.687Z,15.40
2023-05-03T10:07:18.310Z,15.50
2023-05-03T10:09:47.895Z,15.70
2023-05-03T10:12:18.020Z,15.80
2023-05-03T10:14:48.212Z,15.90
2023-05-03T10:17:22.310Z,15.90
2023-05-03T10:19:56.642Z,15.90
2023-05-03T10:22:24.758Z,16.30
2023-05-03T10:25:13.108Z,16.40
2023-05-03T10:27:54.614Z,16.70
2023-05-03T10:30:31.215Z,16.80
2023-05-03T10:32:59.728Z,16.80
2023-05-03T10:35:29.249Z,16.70
2023-05-03T10:38:01.103Z,16.80
2023-05-03T10:40:44.308Z,16.70
2023-05-03T10:43:27.117Z,16.80
2023-05-03T10:45:58.176Z,16.90
2023-05-03T10:48:28.631Z,16.90
2023-05-03T10:50:58.194Z,16.70
2023-05-03T10:53:41.208Z,16.70
2023-05-03T10:56:10.784Z,17.00
2023-05-03T10:58:43.499Z,17.00
2023-05-03T11:01:15.219Z,17.30
2023-05-03T11:03:53.466Z,17.50
2023-05-03T11:06:36.284Z,17.50
2023-05-03T11:09:07.042Z,17.60
2023-05-03T11:11:37.023Z,17.70
2023-05-03T11:14:05.594Z,17.70
2023-05-03T11:16:36.471Z,17.70
2023-05-03T11:19:04.816Z,17.70
2023-05-03T11:21:34.815Z,17.70
2023-05-03T11:24:03.569Z,17.90
2023-05-03T11:26:37.381Z,18.20
2023-05-03T11:29:06.849Z,18.40
2023-05-03T11:31:37.643Z,18.50
2023-05-03T11:34:07.670Z,18.50
2023-05-03T11:36:36.315Z,18.40
2023-05-03T11:39:06.659Z,18.10
2023-05-03T11:41:34.544Z,17.90
2023-05-03T11:44:15.394Z,18.10
2023-05-03T11:46:49.044Z,18.50
2023-05-03T11:49:20.019Z,18.70
2023-05-03T11:51:52.597Z,18.80
2023-05-03T11:54:26.805Z,18.80
2023-05-03T11:56:58.292Z,19.00
2023-05-03T11:59:37.208Z,19.10
2023-05-03T12:02:08.165Z,18.90
2023-05-03T12:04:41.671Z,18.90
2023-05-03T12:07:11.891Z,19.00
2023-05-03T12:09:43.918Z,18.90
2023-05-03T12:12:25.185Z,18.90
2023-05-03T12:15:00.638Z,19.20
2023-05-03T12:17:44.135Z,19.10
2023-05-03T12:22:51.861Z,19.50
2023-05-03T12:25:21.713Z,19.60
2023-05-03T12:28:18.058Z,19.80
2023-05-03T12:30:46.491Z,20.00
2023-05-03T12:33:21.695Z,19.90
2023-05-03T12:35:53.457Z,19.80
2023-05-03T12:38:24.215Z,19.70
2023-05-03T12:40:55.266Z,19.50
2023-05-03T12:43:27.015Z,19.70
2023-05-03T12:46:25.131Z,19.80
2023-05-03T12:48:46.684Z,20.30
2023-05-03T12:51:20.237Z,20.60
2023-05-03T12:53:55.222Z,20.70
2023-05-03T12:56:25.295Z,21.10
2023-05-03T12:59:07.495Z,20.90
2023-05-03T13:04:36.354Z,20.70
2023-05-03T13:09:38.869Z,20.90
2023-05-03T13:12:23.659Z,21.10
2023-05-03T13:14:53.401Z,21.50
2023-05-03T13:17:23.397Z,21.80
2023-05-03T13:19:54.274Z,22.10
2023-05-03T13:22:26.142Z,22.10
2023-05-03T13:24:54.847Z,22.20
2023-05-03T13:27:23.022Z,22.10
2023-05-03T13:29:51.698Z,22.30
2023-05-03T13:32:20.415Z,22.60
2023-05-03T13:34:48.979Z,22.40
2023-05-03T13:37:19.943Z,22.50
2023-05-03T13:39:48.711Z,22.60
2023-05-03T13:42:17.080Z,23.00
2023-05-03T13:44:47.128Z,23.40
2023-05-03T13:47:17.395Z,23.70
2023-05-03T13:49:45.388Z,23.90
2023-05-03T13:52:14.017Z,24.40
2023-05-03T13:54:43.895Z,24.40
2023-05-03T13:57:11.867Z,24.40
2023-05-03T13:59:41.205Z,24.40
2023-05-03T14:02:10.462Z,24.80
2023-05-03T14:04:39.029Z,25.30
2023-05-03T14:07:07.111Z,25.40
2023-05-03T14:09:39.395Z,26.00
2023-05-03T14:12:09.230Z,26.00
2023-05-03T14:14:38.077Z,26.90
2023-05-03T14:17:06.738Z,26.60
2023-05-03T14:19:36.790Z,26.60
2023-05-03T14:22:05.129Z,26.60
2023-05-03T14:24:33.324Z,26.70
2023-05-03T14:27:02.038Z,27.10
2023-05-03T14:29:31.608Z,27.40
2023-05-03T14:32:00.847Z,27.40
2023-05-03T14:34:29.062Z,27.40
2023-05-03T14:36:57.038Z,27.10
2023-05-03T14:39:26.445Z,27.00
2023-05-03T14:41:56.383Z,26.20
2023-05-03T14:44:25.165Z,26.10
2023-05-03T14:46:59.398Z,26.50
2023-05-03T14:49:27.968Z,26.60
2023-05-03T14:51:57.676Z,26.90
2023-05-03T14:54:25.725Z,26.60
2023-05-03T14:56:54.392Z,26.50
2023-05-03T14:59:22.800Z,26.70
2023-05-03T15:01:54.824Z,26.80
2023-05-03T15:04:23.799Z,27.40
2023-05-03T15:06:51.951Z,27.70
2023-05-03T15:09:21.054Z,27.20
2023-05-03T15:11:49.816Z,26.80
2023-05-03T15:14:19.538Z,27.00
2023-05-03T15:16:50.652Z,27.00
2023-05-03T15:19:21.235Z,27.80
2023-05-03T15:21:51.368Z,27.30
2023-05-03T15:24:19.995Z,27.70
2023-05-03T15:26:51.865Z,27.40
2023-05-03T15:29:20.149Z,27.00
2023-05-03T15:31:50.862Z,27.70
2023-05-03T15:34:21.285Z,27.10
2023-05-03T15:36:49.965Z,27.40
2023-05-03T15:39:17.919Z,27.60
2023-05-03T15:41:46.611Z,27.80
2023-05-03T15:44:16.195Z,27.30
2023-05-03T15:46:44.322Z,27.70
2023-05-03T15:49:13.277Z,27.90
2023-05-03T15:51:43.199Z,28.20
2023-05-03T15:54:13.661Z,27.80
2023-05-03T15:56:42.267Z,28.10
2023-05-03T15:59:14.792Z,27.80
2023-05-03T16:01:43.081Z,28.20
2023-05-03T16:04:11.380Z,29.10
2023-05-03T16:06:39.769Z,28.80
2023-05-03T16:09:11.021Z,28.50
2023-05-03T16:11:39.137Z,27.90
2023-05-03T16:14:09.582Z,28.50
2023-05-03T16:16:39.031Z,28.50
2023-05-03T16:19:08.841Z,27.70
2023-05-03T16:21:37.060Z,27.50
2023-05-03T16:24:06.309Z,28.00
2023-05-03T16:26:36.611Z,28.10
2023-05-03T16:29:05.705Z,28.40
2023-05-03T16:31:35.122Z,28.50
2023-05-03T16:34:03.753Z,28.00
2023-05-03T16:36:33.155Z,28.00
2023-05-03T16:39:01.214Z,28.10
2023-05-03T16:41:29.205Z,27.90
2023-05-03T16:43:58.746Z,27.30
2023-05-03T16:46:27.062Z,27.90
2023-05-03T16:48:55.338Z,27.50
2023-05-03T16:51:23.377Z,27.30
2023-05-03T16:53:53.412Z,25.90
2023-05-03T16:56:21.778Z,25.30
2023-05-03T16:58:50.072Z,24.90
2023-05-03T17:01:21.740Z,24.20
2023-05-03T17:03:50.190Z,23.90
2023-05-03T17:06:19.727Z,23.30
2023-05-03T17:08:47.794Z,23.00
2023-05-03T17:11:16.362Z,22.50
2023-05-03T17:13:45.065Z,22.30
2023-05-03T17:16:15.480Z,21.90
2023-05-03T17:18:47.439Z,21.90
2023-05-03T17:21:15.888Z,21.50
2023-05-03T17:23:44.438Z,21.40
2023-05-03T17:26:14.226Z,21.30
2023-05-03T17:28:44.027Z,21.00
2023-05-03T17:31:12.638Z,20.90
2023-05-03T17:33:41.585Z,20.80
2023-05-03T17:36:11.346Z,20.50
2023-05-03T17:38:39.612Z,20.40
2023-05-03T17:41:08.729Z,20.30
2023-05-03T17:43:38.577Z,20.10
2023-05-03T17:46:11.340Z,20.10
2023-05-03T17:48:42.667Z,19.90
2023-05-03T17:51:13.671Z,19.80
2023-05-03T17:53:42.906Z,19.60
2023-05-03T17:56:15.553Z,19.60
2023-05-03T17:58:43.875Z,19.60
2023-05-03T18:01:13.449Z,19.40
2023-05-03T18:03:42.865Z,19.20
2023-05-03T18:06:14.478Z,19.20
2023-05-03T18:08:43.980Z,19.20
2023-05-03T18:11:12.339Z,19.10
2023-05-03T18:13:41.241Z,19.00
2023-05-03T18:16:09.902Z,18.90
2023-05-03T18:18:37.997Z,18.80
2023-05-03T18:21:06.766Z,18.70
2023-05-03T18:23:36.420Z,18.60
2023-05-03T18:26:05.275Z,18.50
2023-05-03T18:28:33.664Z,18.40
2023-05-03T18:31:01.633Z,18.30
2023-05-03T18:33:29.868Z,18.20
2023-05-03T18:35:57.907Z,18.10
2023-05-03T18:38:25.852Z,18.00
2023-05-03T18:40:55.964Z,17.90
2023-05-03T18:43:24.213Z,17.80
2023-05-03T18:45:53.013Z,17.70
2023-05-03T18:48:20.939Z,17.60
2023-05-03T18:50:49.253Z,17.50
2023-05-03T18:53:17.614Z,17.40
2023-05-03T18:55:45.926Z,17.30
2023-05-03T18:58:15.847Z,17.20
2023-05-03T19:00:44.154Z,17.20
2023-05-03T19:03:12.417Z,17.10
2023-05-03T19:05:40.544Z,17.00
2023-05-03T19:08:08.648Z,16.90
2023-05-03T19:10:36.907Z,16.80
2023-05-03T19:13:05.081Z,16.70
2023-05-03T19:15:35.957Z,16.70
2023-05-03T19:18:04.191Z,16.60
2023-05-03T19:20:33.310Z,16.50
2023-05-03T19:23:03.908Z,16.40
2023-05-03T19:25:32.455Z,16.30
2023-05-03T19:28:01.152Z,16.30
2023-05-03T19:33:00.157Z,16.10
2023-05-03T19:35:28.134Z,16.00
2023-05-03T19:37:56.189Z,15.90
2023-05-03T19:40:24.741Z,15.80
2023-05-03T19:42:54.015Z,15.50
2023-05-03T19:45:23.309Z,15.60
2023-05-03T19:47:53.248Z,15.50
2023-05-03T19:50:22.891Z,15.40
2023-05-03T19:52:54.154Z,15.40
2023-05-03T19:55:23.243Z,15.30
2023-05-03T19:57:54.674Z,15.50
2023-05-03T20:00:26.938Z,15.20
2023-05-03T20:02:55.522Z,15.10
2023-05-03T20:05:25.210Z,15.10
2023-05-03T20:07:53.754Z,15.00
2023-05-03T20:10:22.092Z,15.00
2023-05-03T20:12:50.423Z,14.90
2023-05-03T20:15:18.995Z,17.70
2023-05-03T20:17:47.296Z,14.80
2023-05-03T20:20:16.388Z,14.80
2023-05-03T20:22:45.896Z,14.80
2023-05-03T20:25:15.021Z,14.70
2023-05-03T20:27:42.943Z,14.70
2023-05-03T20:30:11.815Z,14.60
2023-05-03T20:32:40.577Z,14.50
2023-05-03T20:35:10.952Z,14.50
2023-05-03T20:37:39.926Z,14.40
2023-05-03T20:40:11.947Z,14.40
2023-05-03T20:42:40.123Z,14.30
2023-05-03T20:45:09.256Z,14.30
2023-05-03T20:47:38.117Z,14.20
2023-05-03T20:50:09.966Z,14.10
2023-05-03T20:52:38.321Z,14.10
2023-05-03T20:55:07.411Z,14.00
2023-05-03T20:57:41.212Z,14.00
2023-05-03T21:00:12.557Z,13.90
2023-05-03T21:02:40.625Z,13.90
2023-05-03T21:05:09.732Z,13.80
2023-05-03T21:07:38.355Z,13.80
2023-05-03T21:10:07.776Z,13.70
2023-05-03T21:12:38.093Z,13.60
2023-05-03T21:15:07.438Z,13.50
2023-05-03T21:17:36.170Z,13.40
2023-05-03T21:20:06.302Z,13.30
2023-05-03T21:22:34.668Z,13.20
2023-05-03T21:25:04.218Z,13.10
2023-05-03T21:27:32.740Z,13.00
2023-05-03T21:30:02.824Z,13.00
2023-05-03T21:32:31.344Z,12.90
2023-05-03T21:34:59.574Z,12.80
2023-05-03T21:37:27.654Z,12.70
2023-05-03T21:40:01.949Z,12.60
2023-05-03T21:42:30.760Z,12.50
2023-05-03T21:44:59.373Z,12.50
2023-05-03T21:47:29.600Z,12.40
2023-05-03T21:49:57.597Z,12.40
2023-05-03T21:52:26.010Z,12.40
2023-05-03T21:54:54.586Z,12.30
2023-05-03T21:57:22.832Z,12.30
2023-05-03T21:59:51.330Z,12.20
2023-05-03T22:02:19.780Z,12.20
2023-05-03T22:04:50.184Z,12.10
2023-05-03T22:07:18.872Z,12.10
2023-05-03T22:09:49.544Z,12.00
2023-05-03T22:12:23.922Z,12.00
2023-05-03T22:14:53.151Z,11.80
2023-05-03T22:17:21.579Z,11.80
2023-05-03T22:19:51.373Z,11.70
2023-05-03T22:22:19.711Z,11.70
2023-05-03T22:24:47.975Z,11.60
2023-05-03T22:27:16.108Z,11.50
2023-05-03T22:29:44.241Z,11.50
2023-05-03T22:32:12.818Z,11.40
2023-05-03T22:34:41.122Z,11.40
2023-05-03T22:37:11.324Z,11.30
2023-05-03T22:39:39.617Z,11.30
2023-05-03T22:42:07.787Z,11.20
2023-05-03T22:44:36.263Z,11.20
2023-05-03T22:47:04.363Z,11.10
2023-05-03T22:49:32.595Z,11.10
2023-05-03T22:52:01.866Z,11.00
2023-05-03T22:54:31.374Z,11.00
2023-05-03T22:56:59.802Z,11.00
2023-05-03T22:59:28.342Z,11.00
2023-05-03T23:01:57.365Z,11.00
2023-05-03T23:04:26.013Z,10.90
2023-05-03T23:06:55.355Z,10.90
2023-05-03T23:09:24.146Z,10.90
2023-05-03T23:11:55.102Z,10.90
2023-05-03T23:14:23.760Z,10.90
2023-05-03T23:16:52.076Z,10.80
2023-05-03T23:19:20.396Z,10.80
2023-05-03T23:21:49.295Z,10.80
2023-05-03T23:24:17.595Z,10.80
2023-05-03T23:26:46.157Z,10.80
2023-05-03T23:29:16.777Z,10.80
2023-05-03T23:31:47.266Z,10.80
2023-05-03T23:34:16.302Z,10.70
2023-05-03T23:36:44.541Z,10.70
2023-05-03T23:39:12.682Z,10.70
2023-05-03T23:41:41.035Z,10.60
2023-05-03T23:44:09.401Z,10.60
2023-05-03T23:46:42.713Z,10.50
2023-05-03T23:49:12.545Z,10.40
2023-05-03T23:51:40.967Z,10.40
2023-05-03T23:54:09.474Z,10.30
2023-05-03T23:56:38.265Z,10.30
2023-05-03T23:59:07.209Z,10.30
